createdAt,value
2018-11-21T00:02:23.565Z,-2.70
2018-11-21T00:04:51.934Z,-2.70
2018-11-21T00:07:20.350Z,-2.70
2018-11-21T00:09:48.718Z,-2.80
2018-11-21T00:12:17.086Z,-2.90
2018-11-21T00:14:45.454Z,-3.00
2018-11-21T00:17:13.818Z,-3.00
2018-11-21T00:19:42.182Z,-3.00
2018-11-21T00:22:10.555Z,-3.10
2018-11-21T00:24:38.920Z,-3.20
2018-11-21T00:27:07.286Z,-3.20
2018-11-21T00:29:35.640Z,-3.30
2018-11-21T00:32:04.030Z,-3.30
2018-11-21T00:34:32.376Z,-3.40
2018-11-21T00:37:00.777Z,-3.40
2018-11-21T00:39:29.134Z,-3.30
2018-11-21T00:41:57.503Z,-3.40
2018-11-21T00:44:25.949Z,-3.50
2018-11-21T00:46:54.415Z,-3.50
2018-11-21T00:49:22.780Z,-3.50
2018-11-21T00:51:51.198Z,-3.40
2018-11-21T00:54:19.566Z,-3.40
2018-11-21T00:56:48.012Z,-3.50
2018-11-21T00:59:16.398Z,-3.50
2018-11-21T01:01:44.760Z,-3.50
2018-11-21T01:04:13.131Z,-3.40
2018-11-21T01:06:41.505Z,-3.30
2018-11-21T01:09:09.914Z,-3.30
2018-11-21T01:11:38.306Z,-3.20
2018-11-21T01:14:06.686Z,-3.10
2018-11-21T01:16:35.055Z,-3.10
2018-11-21T01:19:03.441Z,-3.10
2018-11-21T01:21:31.824Z,-3.00
2018-11-21T01:24:00.224Z,-3.10
2018-11-21T01:26:28.585Z,-3.10
2018-11-21T01:28:56.980Z,-3.00
2018-11-21T01:31:25.361Z,-3.00
2018-11-21T01:33:53.775Z,-3.00
2018-11-21T01:36:22.156Z,-2.90
2018-11-21T01:38:50.621Z,-2.80
2018-11-21T01:41:18.995Z,-2.80
2018-11-21T01:43:47.413Z,-2.70
2018-11-21T01:46:15.780Z,-2.70
2018-11-21T01:48:44.139Z,-2.60
2018-11-21T01:51:12.486Z,-2.60
2018-11-21T01:53:40.861Z,-2.50
2018-11-21T01:56:09.241Z,-2.50
2018-11-21T01:58:37.603Z,-2.40
2018-11-21T02:01:05.954Z,-2.40
2018-11-21T02:03:34.337Z,-2.30
2018-11-21T02:06:02.707Z,-2.30
2018-11-21T02:08:31.076Z,-2.20
2018-11-21T02:10:59.462Z,-2.20
2018-11-21T02:13:27.817Z,-2.10
2018-11-21T02:15:56.172Z,-2.10
2018-11-21T02:18:24.525Z,-2.10
2018-11-21T02:20:52.875Z,-2.00
2018-11-21T02:23:21.236Z,-2.00
2018-11-21T02:25:49.586Z,-1.90
2018-11-21T02:28:17.952Z,-1.80
2018-11-21T02:30:46.353Z,-1.80
2018-11-21T02:33:14.734Z,-1.80
2018-11-21T02:35:43.116Z,-1.70
2018-11-21T02:38:11.482Z,-1.70
2018-11-21T02:40:39.861Z,-1.70
2018-11-21T02:43:08.261Z,-1.70
2018-11-21T02:45:36.713Z,-1.70
2018-11-21T02:48:05.231Z,-1.70
2018-11-21T02:50:33.597Z,-1.80
2018-11-21T02:53:01.959Z,-1.70
2018-11-21T02:55:30.333Z,-1.80
2018-11-21T02:57:58.704Z,-1.80
2018-11-21T03:00:28.026Z,-1.70
2018-11-21T03:02:56.394Z,-1.70
2018-11-21T03:05:24.763Z,-1.70
2018-11-21T03:07:54.486Z,-1.60
2018-11-21T03:10:23.777Z,-1.60
2018-11-21T03:12:52.140Z,-1.60
2018-11-21T03:15:20.636Z,-1.60
2018-11-21T03:17:48.989Z,-1.60
2018-11-21T03:20:17.595Z,-1.60
2018-11-21T03:22:46.116Z,-1.60
2018-11-21T03:25:14.496Z,-1.60
2018-11-21T03:27:42.839Z,-1.50
2018-11-21T03:30:12.344Z,-1.50
2018-11-21T03:32:41.434Z,-1.40
2018-11-21T03:35:09.909Z,-1.40
2018-11-21T03:37:57.686Z,-1.40
2018-11-21T03:40:45.419Z,-1.40
2018-11-21T03:43:33.176Z,-1.30
2018-11-21T03:46:20.924Z,-1.30
2018-11-21T03:49:08.638Z,-1.30
2018-11-21T03:51:56.357Z,-1.20
2018-11-21T03:54:44.076Z,-1.10
2018-11-21T03:57:31.849Z,-1.10
2018-11-21T04:00:19.569Z,-1.10
2018-11-21T04:03:07.286Z,-1.00
2018-11-21T04:05:55.014Z,-0.90
2018-11-21T04:08:42.835Z,-0.90
2018-11-21T04:11:30.532Z,-0.80
2018-11-21T04:14:18.291Z,-0.80
2018-11-21T04:17:06.050Z,-0.80
2018-11-21T04:19:53.771Z,-0.90
2018-11-21T04:22:41.501Z,-0.80
2018-11-21T04:25:29.234Z,-0.80
2018-11-21T04:28:16.975Z,-0.80
2018-11-21T04:31:04.727Z,-0.80
2018-11-21T04:33:52.520Z,-0.80
2018-11-21T04:36:40.225Z,-0.70
2018-11-21T04:39:27.961Z,-0.70
2018-11-21T04:42:15.706Z,-0.70
2018-11-21T04:45:03.466Z,-0.70
2018-11-21T04:47:51.229Z,-0.60
2018-11-21T04:50:39.224Z,-0.60
2018-11-21T04:53:28.101Z,-0.60
2018-11-21T04:56:15.404Z,-0.50
2018-11-21T04:59:03.148Z,-0.50
2018-11-21T05:01:50.888Z,-0.50
2018-11-21T05:04:38.642Z,-0.50
2018-11-21T05:07:26.492Z,-0.50
2018-11-21T05:10:14.265Z,-0.40
2018-11-21T05:13:02.026Z,-0.50
2018-11-21T05:15:49.821Z,-0.40
2018-11-21T05:18:37.570Z,-0.40
2018-11-21T05:21:25.399Z,-0.40
2018-11-21T05:24:13.180Z,-0.40
2018-11-21T05:27:00.967Z,-0.30
2018-11-21T05:29:48.724Z,-0.30
2018-11-21T05:32:36.495Z,-0.30
2018-11-21T05:35:24.255Z,-0.30
2018-11-21T05:38:12.011Z,-0.30
2018-11-21T05:40:59.773Z,-0.20
2018-11-21T05:43:47.515Z,-0.20
2018-11-21T05:46:35.255Z,-0.20
2018-11-21T05:49:23.119Z,-0.20
2018-11-21T05:52:10.875Z,-0.20
2018-11-21T05:54:58.662Z,-0.20
2018-11-21T05:57:46.439Z,-0.10
2018-11-21T06:00:34.197Z,-0.10
2018-11-21T06:03:21.987Z,-0.10
2018-11-21T06:06:10.153Z,-0.10
2018-11-21T06:08:57.479Z,0.00
2018-11-21T06:11:45.237Z,0.00
2018-11-21T06:14:32.974Z,0.10
2018-11-21T06:17:20.745Z,0.10
2018-11-21T06:20:09.212Z,0.10
2018-11-21T06:22:56.959Z,0.10
2018-11-21T06:25:44.744Z,0.20
2018-11-21T06:28:32.631Z,0.20
2018-11-21T06:31:20.426Z,0.20
2018-11-21T06:34:08.183Z,0.20
2018-11-21T06:36:55.990Z,0.20
2018-11-21T06:39:43.786Z,0.20
2018-11-21T06:42:31.586Z,0.20
2018-11-21T06:45:19.503Z,0.20
2018-11-21T06:48:07.253Z,0.20
2018-11-21T06:50:55.061Z,0.30
2018-11-21T06:53:42.905Z,0.30
2018-11-21T06:56:30.732Z,0.30
2018-11-21T06:59:18.489Z,0.40
2018-11-21T07:02:06.225Z,0.40
2018-11-21T07:04:53.990Z,0.40
2018-11-21T07:07:41.719Z,0.50
2018-11-21T07:10:29.602Z,0.50
2018-11-21T07:13:17.363Z,0.50
2018-11-21T07:16:05.132Z,0.60
2018-11-21T07:18:52.870Z,0.60
2018-11-21T07:21:40.631Z,0.70
2018-11-21T07:24:28.357Z,0.70
2018-11-21T07:27:16.108Z,0.70
2018-11-21T07:30:03.839Z,0.80
2018-11-21T07:32:51.593Z,0.80
2018-11-21T07:35:39.511Z,0.80
2018-11-21T07:38:27.505Z,0.90
2018-11-21T07:41:15.276Z,0.90
2018-11-21T07:44:03.037Z,1.00
2018-11-21T07:46:50.778Z,1.00
2018-11-21T07:49:38.971Z,1.10
2018-11-21T07:52:26.795Z,1.10
2018-11-21T07:55:14.735Z,1.20
2018-11-21T07:58:21.665Z,1.10
2018-11-21T08:01:28.832Z,1.20
2018-11-21T08:04:20.966Z,1.20
2018-11-21T08:10:31.241Z,1.30
2018-11-21T08:13:38.135Z,1.40
2018-11-21T08:16:45.210Z,1.40
2018-11-21T08:19:52.103Z,1.50
2018-11-21T08:22:59.023Z,1.50
2018-11-21T08:26:05.920Z,1.60
2018-11-21T08:28:53.660Z,1.70
2018-11-21T08:31:41.514Z,1.80
2018-11-21T08:37:16.964Z,1.90
2018-11-21T08:40:04.836Z,1.90
2018-11-21T08:42:52.571Z,1.90
2018-11-21T08:45:40.335Z,2.00
2018-11-21T08:48:28.285Z,2.00
2018-11-21T08:51:16.068Z,2.00
2018-11-21T08:54:03.826Z,2.10
2018-11-21T08:56:51.606Z,2.20
2018-11-21T08:59:39.345Z,2.30
2018-11-21T09:02:27.181Z,2.30
2018-11-21T09:05:14.929Z,2.40
2018-11-21T09:08:02.752Z,2.40
2018-11-21T09:10:50.526Z,2.50
2018-11-21T09:13:38.269Z,2.50
2018-11-21T09:16:25.994Z,2.50
2018-11-21T09:19:13.720Z,2.60
2018-11-21T09:22:01.447Z,2.70
2018-11-21T09:24:49.238Z,2.80
2018-11-21T09:27:37.458Z,2.80
2018-11-21T09:30:25.191Z,2.90
2018-11-21T09:33:12.989Z,2.90
2018-11-21T09:36:00.746Z,3.00
2018-11-21T09:38:48.468Z,3.00
2018-11-21T09:41:36.210Z,3.10
2018-11-21T09:44:24.074Z,3.20
2018-11-21T09:47:11.819Z,3.20
2018-11-21T09:49:59.752Z,3.20
2018-11-21T09:52:50.380Z,3.30
2018-11-21T09:55:35.966Z,3.40
2018-11-21T09:58:22.945Z,3.50
2018-11-21T10:01:30.131Z,3.50
2018-11-21T10:04:17.898Z,3.60
2018-11-21T10:06:58.312Z,3.60
2018-11-21T10:09:44.305Z,3.70
2018-11-21T10:12:25.095Z,3.70
2018-11-21T10:15:05.353Z,3.80
2018-11-21T10:17:46.107Z,3.80
2018-11-21T10:20:26.807Z,3.90
2018-11-21T10:23:07.146Z,3.90
2018-11-21T10:25:47.584Z,3.90
2018-11-21T10:28:28.959Z,3.90
2018-11-21T10:31:09.221Z,4.00
2018-11-21T10:33:50.448Z,4.10
2018-11-21T10:36:31.296Z,4.10
2018-11-21T10:39:11.585Z,4.00
2018-11-21T10:41:52.002Z,4.20
2018-11-21T10:44:32.742Z,4.20
2018-11-21T10:47:13.807Z,4.30
2018-11-21T10:49:54.162Z,4.40
2018-11-21T10:52:35.263Z,4.40
2018-11-21T10:55:16.200Z,4.40
2018-11-21T10:57:56.788Z,4.50
2018-11-21T11:00:56.102Z,4.50
2018-11-21T11:03:39.378Z,4.60
2018-11-21T11:06:39.296Z,4.60
2018-11-21T11:09:39.053Z,4.70
2018-11-21T11:12:39.243Z,4.80
2018-11-21T11:15:39.102Z,4.80
2018-11-21T11:21:43.568Z,4.90
2018-11-21T11:24:43.480Z,4.90
2018-11-21T11:27:43.596Z,4.90
2018-11-21T11:30:46.379Z,4.70
2018-11-21T11:33:46.288Z,4.80
2018-11-21T11:36:36.044Z,4.70
2018-11-21T11:39:36.144Z,4.80
2018-11-21T11:42:30.673Z,4.80
2018-11-21T11:45:30.451Z,4.80
2018-11-21T11:51:11.230Z,4.80
2018-11-21T11:54:11.249Z,4.80
2018-11-21T11:57:11.384Z,4.80
2018-11-21T12:00:11.642Z,4.80
2018-11-21T12:03:11.521Z,4.90
2018-11-21T12:06:14.193Z,4.80
2018-11-21T12:09:14.381Z,4.70
2018-11-21T12:12:15.196Z,4.70
2018-11-21T12:15:17.115Z,4.80
2018-11-21T12:18:16.359Z,4.80
2018-11-21T12:21:20.405Z,4.90
2018-11-21T12:27:45.185Z,4.80
2018-11-21T12:33:51.168Z,4.90
2018-11-21T12:36:57.487Z,4.90
2018-11-21T12:39:57.503Z,4.90
2018-11-21T12:42:57.375Z,4.90
2018-11-21T12:45:57.563Z,4.90
2018-11-21T12:48:57.676Z,4.90
2018-11-21T12:51:58.002Z,4.90
2018-11-21T12:54:58.022Z,4.90
2018-11-21T12:57:58.065Z,4.90
2018-11-21T13:04:00.614Z,4.90
2018-11-21T13:06:44.307Z,4.80
2018-11-21T13:09:42.513Z,4.80
2018-11-21T13:12:42.203Z,4.80
2018-11-21T13:15:45.480Z,4.80
2018-11-21T13:18:45.350Z,4.80
2018-11-21T13:21:45.658Z,4.80
2018-11-21T13:24:51.861Z,4.70
2018-11-21T13:27:52.005Z,4.70
2018-11-21T13:33:31.991Z,4.70
2018-11-21T13:36:31.792Z,4.70
2018-11-21T13:39:31.427Z,4.70
2018-11-21T13:42:37.545Z,4.70
2018-11-21T13:45:33.026Z,4.70
2018-11-21T13:48:30.635Z,4.70
2018-11-21T13:51:30.223Z,4.70
2018-11-21T13:54:30.337Z,4.60
2018-11-21T13:57:10.658Z,4.60
2018-11-21T13:59:51.919Z,4.50
2018-11-21T14:02:33.118Z,4.50
2018-11-21T14:05:13.535Z,4.40
2018-11-21T14:07:54.287Z,4.40
2018-11-21T14:10:34.722Z,4.40
2018-11-21T14:13:15.619Z,4.40
2018-11-21T14:15:56.552Z,4.40
2018-11-21T14:18:37.325Z,4.40
2018-11-21T14:21:18.093Z,4.30
2018-11-21T14:23:58.990Z,4.30
2018-11-21T14:26:39.956Z,4.30
2018-11-21T14:29:20.682Z,4.30
2018-11-21T14:32:00.923Z,4.30
2018-11-21T14:34:41.574Z,4.20
2018-11-21T14:37:22.259Z,4.20
2018-11-21T14:40:02.861Z,4.20
2018-11-21T14:42:44.228Z,4.20
2018-11-21T14:45:25.455Z,4.20
2018-11-21T14:48:06.588Z,4.10
2018-11-21T14:50:47.640Z,4.10
2018-11-21T14:53:27.944Z,4.10
2018-11-21T14:56:08.931Z,4.10
2018-11-21T14:58:49.835Z,4.10
2018-11-21T15:01:30.787Z,4.00
2018-11-21T15:04:11.062Z,4.10
2018-11-21T15:06:51.696Z,4.00
2018-11-21T15:09:32.626Z,4.00
2018-11-21T15:12:13.435Z,4.00
2018-11-21T15:14:53.737Z,4.00
2018-11-21T15:17:34.086Z,4.00
2018-11-21T15:20:16.672Z,3.90
2018-11-21T15:22:57.637Z,4.00
2018-11-21T15:25:38.242Z,3.90
2018-11-21T15:28:18.764Z,3.90
2018-11-21T15:30:59.205Z,3.90
2018-11-21T15:33:39.866Z,3.80
2018-11-21T15:36:20.210Z,3.90
2018-11-21T15:39:01.499Z,3.90
2018-11-21T15:44:24.738Z,3.80
2018-11-21T15:47:05.883Z,3.80
2018-11-21T15:49:47.009Z,3.80
2018-11-21T15:52:27.595Z,3.80
2018-11-21T15:55:08.235Z,3.80
2018-11-21T16:00:35.200Z,3.80
2018-11-21T16:03:15.759Z,3.70
2018-11-21T16:05:56.962Z,3.70
2018-11-21T16:08:37.371Z,3.70
2018-11-21T16:11:17.777Z,3.70
2018-11-21T16:13:58.191Z,3.70
2018-11-21T16:16:39.108Z,3.70
2018-11-21T16:19:19.633Z,3.70
2018-11-21T16:22:00.617Z,3.70
2018-11-21T16:24:41.091Z,3.70
2018-11-21T16:27:22.193Z,3.70
2018-11-21T16:30:03.414Z,3.70
2018-11-21T16:32:43.954Z,3.70
2018-11-21T16:35:24.444Z,3.70
2018-11-21T16:38:05.513Z,3.70
2018-11-21T16:40:46.305Z,3.70
2018-11-21T16:43:26.694Z,3.70
2018-11-21T16:46:07.184Z,3.70
2018-11-21T16:48:47.889Z,3.70
2018-11-21T16:51:29.159Z,3.70
2018-11-21T16:54:09.407Z,3.60
2018-11-21T16:56:50.601Z,3.60
2018-11-21T16:59:31.870Z,3.60
2018-11-21T17:02:12.901Z,3.60
2018-11-21T17:04:53.343Z,3.60
2018-11-21T17:07:33.977Z,3.60
2018-11-21T17:10:18.775Z,3.60
2018-11-21T17:12:59.180Z,3.60
2018-11-21T17:15:39.795Z,3.60
2018-11-21T17:18:20.919Z,3.70
2018-11-21T17:21:01.525Z,3.60
2018-11-21T17:23:42.557Z,3.60
2018-11-21T17:26:22.958Z,3.60
